Weather reports worldwide

Advertisment
Paganella, Italy (16022): temperature & dewpoint: 12.09.2019 06:00:00 - 18.09.2019 06:00:00 (CEST)Paganella, Italy (16022): wind speed: 12.09.2019 06:00:00 - 18.09.2019 06:00:00 (CEST)Paganella, Italy (16022): wind direction: 12.09.2019 06:00:00 - 18.09.2019 06:00:00 (CEST)Paganella, Italy (16022): visibility: 12.09.2019 06:00:00 - 18.09.2019 06:00:00 (CEST)Paganella, Italy (16022): sunshine duration: 12.09.2019 06:00:00 - 18.09.2019 06:00:00 (CEST)
Date & Time tt [°C] td [°C] ff [km/h] ff [kn] dd vv [km] sd [min]
18.09.2019 06:00:00 - - - - - - -
18.09.2019 05:00:00 8,8 4,0 11 6 N 20 -
18.09.2019 04:00:00 8,8 6,4 5 3 N 30 -
18.09.2019 03:00:00 9,0 9,0 8 4 N 0,6 -
18.09.2019 02:00:00 9,8 9,4 9 5 N 0,3 -
18.09.2019 01:00:00 10,2 9,7 9 5 N 0,6 -
18.09.2019 00:00:00 10,8 10,8 5 3 N 0,6 -
17.09.2019 23:00:00 12,2 10,9 5 3 N 20 -
17.09.2019 22:00:00 12,8 9,8 0 0 N 20 -
17.09.2019 21:00:00 13,0 9,6 4 2 SSW 30 -
17.09.2019 20:00:00 13,8 8,4 13 7 SSW 30 0
17.09.2019 19:00:00 14,6 6,9 11 6 SSW 30 48
17.09.2019 18:00:00 15,4 5,9 9 5 SSW 40 60
17.09.2019 17:00:00 15,2 7,0 11 6 S 40 60
17.09.2019 16:00:00 15,4 9,1 8 4 SSW 40 60
17.09.2019 15:00:00 14,8 10,2 4 2 WSW 40 48
17.09.2019 14:00:00 14,2 10,4 4 2 SSW 40 60
17.09.2019 13:00:00 14,0 9,0 8 4 S 40 60
17.09.2019 12:00:00 13,6 7,4 15 8 SSW 40 60
17.09.2019 11:00:00 13,6 5,2 15 8 S 40 60
17.09.2019 10:00:00 12,6 3,6 0 0 N 40 60
17.09.2019 09:00:00 12,2 0,9 0 0 N 40 60
17.09.2019 08:00:00 12,0 -0,2 4 2 N 40 0
17.09.2019 07:00:00 11,6 2,1 5 3 NNE 40 -
17.09.2019 06:00:00 11,2 3,7 8 4 N 30 -
17.09.2019 05:00:00 11,0 6,4 8 4 N 30 -
17.09.2019 04:00:00 11,4 5,5 5 3 N 30 -
17.09.2019 03:00:00 11,3 8,0 5 3 N 35 -
17.09.2019 02:00:00 11,3 8,0 5 3 N 40 -
17.09.2019 01:00:00 12,0 9,0 5 3 N 30 -
17.09.2019 00:00:00 12,0 9,0 5 3 N 30 -
16.09.2019 23:00:00 13,0 11,1 9 5 N 35 -
16.09.2019 22:00:00 13,2 9,8 5 3 N 40 -
16.09.2019 21:00:00 13,4 10,9 0 0 N 30 -
16.09.2019 20:00:00 14,4 10,0 13 7 S 50 6
16.09.2019 19:00:00 15,4 9,3 15 8 S 60 60
16.09.2019 18:00:00 16,4 6,2 13 7 SSW 60 60
16.09.2019 17:00:00 16,8 7,2 11 6 S 60 60
16.09.2019 16:00:00 17,0 6,8 8 4 S 60 60
16.09.2019 15:00:00 15,4 8,2 4 2 S 60 60
16.09.2019 14:00:00 15,2 5,4 0 0 N 60 60
16.09.2019 13:00:00 15,0 -2,0 9 5 NNE 60 60
16.09.2019 12:00:00 14,6 -0,7 9 5 N 60 60
16.09.2019 11:00:00 14,4 1,7 5 3 N 70 60
16.09.2019 10:00:00 13,2 -0,1 5 3 N 60 60
16.09.2019 09:00:00 12,8 2,1 5 3 N 60 60
16.09.2019 08:00:00 12,0 3,2 8 4 N 60 18
16.09.2019 07:00:00 11,6 4,1 9 5 N 50 0
16.09.2019 06:00:00 11,0 7,7 5 3 N 35 -
16.09.2019 05:00:00 11,5 7,8 5 3 N 35 -
16.09.2019 04:00:00 11,5 7,8 5 3 N 40 -
16.09.2019 03:00:00 11,2 6,9 8 4 N 60 -
16.09.2019 02:00:00 11,4 6,5 5 3 N 60 -
16.09.2019 01:00:00 11,8 3,8 0 0 N 50 -
16.09.2019 00:00:00 12,0 4,0 4 2 S 60 -
15.09.2019 23:00:00 12,2 4,2 5 3 S 60 -
15.09.2019 22:00:00 12,6 3,8 0 0 N 30 -
15.09.2019 21:00:00 13,0 4,4 5 3 S 50 -
15.09.2019 20:00:00 13,6 4,7 8 4 S 50 6
15.09.2019 19:00:00 14,8 8,7 5 3 SW 70 60
15.09.2019 18:00:00 15,0 11,2 0 0 N 70 60
15.09.2019 17:00:00 14,8 9,8 5 3 N 70 60
15.09.2019 16:00:00 14,7 10,7 8 4 NNE 60 60
15.09.2019 15:00:00 14,2 10,8 9 5 NNE 60 60
15.09.2019 14:00:00 13,8 8,4 9 5 NNE 60 60
15.09.2019 13:00:00 13,0 7,7 9 5 NNE 50 60
15.09.2019 12:00:00 12,0 10,1 8 4 N 30 12
15.09.2019 11:00:00 10,2 9,9 0 0 N 0,6 0
15.09.2019 10:00:00 9,2 9,2 5 3 NNE - 0
15.09.2019 09:00:00 9,0 9,0 0 0 N - 0
15.09.2019 08:00:00 9,0 9,0 0 0 N 0,1 0
15.09.2019 07:00:00 8,8 8,8 8 4 NNE 0,1 0
15.09.2019 06:00:00 9,2 9,2 5 3 N 0,1 -
15.09.2019 05:00:00 9,4 9,4 8 4 N 0,1 -
15.09.2019 04:00:00 9,4 9,4 5 3 N 0,1 -
15.09.2019 03:00:00 9,5 9,5 0 0 N 0,1 -
15.09.2019 02:00:00 9,9 9,9 0 0 N 0,1 -
15.09.2019 01:00:00 10,4 10,0 0 0 N 0,5 -
15.09.2019 00:00:00 10,8 10,2 9 5 NNE 10 -
14.09.2019 23:00:00 11,0 9,7 9 5 NNE 10 -
14.09.2019 22:00:00 11,0 9,1 15 8 NNE 25 -
14.09.2019 21:00:00 11,8 8,8 0 0 N 15 -
14.09.2019 20:00:00 11,8 9,4 15 8 S 50 0
14.09.2019 19:00:00 14,4 11,2 11 6 S 40 36
14.09.2019 18:00:00 14,4 10,6 9 5 S 50 60
14.09.2019 17:00:00 14,8 10,4 8 4 SSE 60 60
14.09.2019 16:00:00 14,2 10,4 11 6 SSE 50 60
14.09.2019 15:00:00 13,8 11,3 8 4 SSE 40 12
14.09.2019 14:00:00 13,8 11,5 0 0 N 60 60
14.09.2019 13:00:00 12,8 10,9 8 4 SSE 60 24
14.09.2019 12:00:00 12,4 10,8 4 2 N 60 30
14.09.2019 11:00:00 12,0 9,5 0 0 N 60 60
14.09.2019 10:00:00 11,6 9,5 0 0 N 60 60
14.09.2019 09:00:00 11,0 8,0 0 0 N 50 60
14.09.2019 08:00:00 10,6 7,3 5 3 - 50 12
14.09.2019 07:00:00 10,8 5,5 9 5 SW 50 0
14.09.2019 06:00:00 11,0 5,7 4 2 N 40 -
14.09.2019 05:00:00 11,0 5,7 0 0 N 40 -
14.09.2019 04:00:00 11,0 5,7 0 0 N 40 -
14.09.2019 03:00:00 11,2 7,9 0 0 N 60 -
14.09.2019 02:00:00 11,4 6,7 8 4 W 40 -
14.09.2019 01:00:00 12,0 5,2 0 0 N 60 -
14.09.2019 00:00:00 12,8 4,5 4 2 W 60 -
13.09.2019 23:00:00 13,2 3,6 8 4 N 60 -
13.09.2019 22:00:00 13,2 2,7 4 2 N 60 -
13.09.2019 21:00:00 13,2 3,6 0 0 N 60 -
13.09.2019 20:00:00 13,4 3,5 5 3 N 60 18
13.09.2019 19:00:00 14,0 2,3 5 3 N 70 60
13.09.2019 18:00:00 14,2 5,3 5 3 N 70 60
13.09.2019 17:00:00 14,0 2,9 5 3 N 70 60
13.09.2019 16:00:00 14,0 7,1 5 3 N 70 60
13.09.2019 15:00:00 13,2 6,8 5 3 N 70 60
13.09.2019 14:00:00 13,2 7,9 5 3 N 70 60
13.09.2019 13:00:00 12,6 8,5 5 3 N 70 60
13.09.2019 12:00:00 11,8 8,3 0 0 N 70 60
13.09.2019 11:00:00 11,6 8,1 5 3 N 60 60
13.09.2019 10:00:00 11,0 7,1 0 0 N 60 60
13.09.2019 09:00:00 10,3 6,1 0 0 N 60 60
13.09.2019 08:00:00 9,7 5,7 0 0 N 60 6
13.09.2019 07:00:00 9,0 4,4 0 0 N 60 0
13.09.2019 06:00:00 9,6 4,2 5 3 N 50 -
13.09.2019 05:00:00 9,3 4,9 8 4 N 50 -
13.09.2019 04:00:00 9,6 5,2 5 3 N 50 -
13.09.2019 03:00:00 10,0 3,3 8 4 N 50 -
13.09.2019 02:00:00 10,0 3,3 8 4 N 50 -
13.09.2019 01:00:00 10,0 3,3 0 0 N 50 -
13.09.2019 00:00:00 10,6 3,9 0 0 N 30 -
12.09.2019 23:00:00 10,8 3,4 0 0 N 50 -
12.09.2019 22:00:00 11,0 3,5 0 0 N 50 -
12.09.2019 21:00:00 11,0 3,5 9 5 N 50 -
12.09.2019 20:00:00 11,0 2,6 8 4 N 60 18
12.09.2019 19:00:00 11,8 2,5 8 4 N 60 60
12.09.2019 18:00:00 12,0 2,2 9 5 N 60 60
12.09.2019 17:00:00 12,5 6,3 0 0 N 60 60
12.09.2019 16:00:00 12,1 4,6 5 3 E 60 60
12.09.2019 15:00:00 12,0 5,6 8 4 NNE 60 60
12.09.2019 14:00:00 12,0 5,6 5 3 - 60 60
12.09.2019 13:00:00 11,9 5,3 4 2 N 60 60
12.09.2019 12:00:00 10,9 4,8 4 2 N 60 60
12.09.2019 11:00:00 9,5 3,0 4 2 N 60 60
12.09.2019 10:00:00 8,6 2,0 8 4 N 60 60
12.09.2019 09:00:00 8,0 1,8 11 6 N 60 60
12.09.2019 08:00:00 7,4 1,2 13 7 N 60 12
12.09.2019 07:00:00 7,0 0,7 11 6 N 60 0
12.09.2019 06:00:00 7,1 1,0 16 9 NNE 50 -

tt = temperature
td = dewpoint
ff = wind speed
dd = wind direction
vv = visibility
sd = sunshine duration

Next stations